createdAt,value
2022-12-19T00:01:37.247Z,4.30
2022-12-19T00:04:08.009Z,4.30
2022-12-19T00:06:36.540Z,4.30
2022-12-19T00:09:04.016Z,4.30
2022-12-19T00:11:32.094Z,4.30
2022-12-19T00:14:00.045Z,4.30
2022-12-19T00:16:29.550Z,4.30
2022-12-19T00:18:59.042Z,4.30
2022-12-19T00:21:28.826Z,4.30
2022-12-19T00:23:56.100Z,4.30
2022-12-19T00:26:25.990Z,4.30
2022-12-19T00:28:57.248Z,4.30
2022-12-19T00:31:26.644Z,4.30
2022-12-19T00:33:53.678Z,4.30
2022-12-19T00:36:23.275Z,4.30
2022-12-19T00:38:52.276Z,4.30
2022-12-19T00:41:25.700Z,4.30
2022-12-19T00:43:57.957Z,4.30
2022-12-19T00:46:25.833Z,4.30
2022-12-19T00:48:52.778Z,4.30
2022-12-19T00:51:22.499Z,4.30
2022-12-19T00:53:51.078Z,4.30
2022-12-19T00:56:20.766Z,4.40
2022-12-19T00:58:48.273Z,4.40
2022-12-19T01:01:19.528Z,4.40
2022-12-19T01:04:18.629Z,4.50
2022-12-19T01:06:34.732Z,4.50
2022-12-19T01:09:02.041Z,4.50
2022-12-19T01:11:47.506Z,4.50
2022-12-19T01:14:22.295Z,4.50
2022-12-19T01:16:50.791Z,4.60
2022-12-19T01:19:19.378Z,4.60
2022-12-19T01:21:46.416Z,4.50
2022-12-19T01:24:13.788Z,4.60
2022-12-19T01:26:45.355Z,4.50
2022-12-19T01:29:12.411Z,4.60
2022-12-19T01:31:39.688Z,4.50
2022-12-19T01:34:06.831Z,4.50
2022-12-19T01:36:39.648Z,4.50
2022-12-19T01:39:07.280Z,4.50
2022-12-19T01:41:34.567Z,4.60
2022-12-19T01:44:05.954Z,4.60
2022-12-19T01:46:48.880Z,4.50
2022-12-19T01:49:25.315Z,4.50
2022-12-19T01:51:55.390Z,4.50
2022-12-19T01:54:28.931Z,4.40
2022-12-19T01:56:58.839Z,4.40
2022-12-19T01:59:41.797Z,4.30
2022-12-19T02:02:19.151Z,4.30
2022-12-19T02:04:46.282Z,4.30
2022-12-19T02:07:16.637Z,4.20
2022-12-19T02:09:51.922Z,4.20
2022-12-19T02:12:26.714Z,4.20
2022-12-19T02:14:56.022Z,4.20
2022-12-19T02:17:55.213Z,4.10
2022-12-19T02:21:12.718Z,4.10
2022-12-19T02:24:16.410Z,4.00
2022-12-19T02:27:35.916Z,4.00
2022-12-19T02:30:18.218Z,3.90
2022-12-19T02:33:01.474Z,3.70
2022-12-19T02:35:53.429Z,3.60
2022-12-19T02:38:30.610Z,3.50
2022-12-19T02:41:13.304Z,3.30
2022-12-19T02:43:44.930Z,3.30
2022-12-19T02:46:15.359Z,3.30
2022-12-19T02:48:43.439Z,3.20
2022-12-19T02:51:10.456Z,3.30
2022-12-19T02:53:39.325Z,3.30
2022-12-19T02:56:31.369Z,3.30
2022-12-19T02:58:58.328Z,3.30
2022-12-19T03:01:47.722Z,3.30
2022-12-19T03:04:39.775Z,3.30
2022-12-19T03:07:39.000Z,3.30
2022-12-19T03:10:37.836Z,3.30
2022-12-19T03:13:45.903Z,3.40
2022-12-19T03:16:13.401Z,3.30
2022-12-19T03:18:40.480Z,3.30
2022-12-19T03:21:07.452Z,3.30
2022-12-19T03:23:34.627Z,3.20
2022-12-19T03:26:12.472Z,3.20
2022-12-19T03:29:15.257Z,3.20
2022-12-19T03:31:44.992Z,3.10
2022-12-19T03:34:19.137Z,3.10
2022-12-19T03:36:55.159Z,3.10
2022-12-19T03:39:25.146Z,3.10
2022-12-19T03:42:12.127Z,3.20
2022-12-19T03:44:42.555Z,3.10
2022-12-19T03:47:22.393Z,3.10
2022-12-19T03:49:50.122Z,3.10
2022-12-19T03:52:35.333Z,3.00
2022-12-19T03:55:18.130Z,3.00
2022-12-19T03:57:57.171Z,2.90
2022-12-19T04:00:25.380Z,2.80
2022-12-19T04:02:55.838Z,2.80
2022-12-19T04:05:26.142Z,2.70
2022-12-19T04:07:56.844Z,2.70
2022-12-19T04:10:27.323Z,2.70
2022-12-19T04:13:04.678Z,2.60
2022-12-19T04:15:47.806Z,2.70
2022-12-19T04:18:17.031Z,2.60
2022-12-19T04:20:55.310Z,2.70
2022-12-19T04:23:28.692Z,2.70
2022-12-19T04:26:00.035Z,2.70
2022-12-19T04:28:40.976Z,2.70
2022-12-19T04:31:11.297Z,2.60
2022-12-19T04:33:38.286Z,2.60
2022-12-19T04:36:05.499Z,2.60
2022-12-19T04:38:32.579Z,2.60
2022-12-19T04:40:59.540Z,2.60
2022-12-19T04:43:26.465Z,2.60
2022-12-19T04:45:57.276Z,2.50
2022-12-19T04:48:24.931Z,2.50
2022-12-19T04:50:51.936Z,2.50
2022-12-19T04:53:18.924Z,2.50
2022-12-19T04:55:45.861Z,2.50
2022-12-19T04:58:16.313Z,2.50
2022-12-19T05:00:46.042Z,2.60
2022-12-19T05:03:12.975Z,2.70
2022-12-19T05:05:40.411Z,2.70
2022-12-19T05:08:07.832Z,2.80
2022-12-19T05:10:36.679Z,2.80
2022-12-19T05:13:03.650Z,2.90
2022-12-19T05:15:30.630Z,3.00
2022-12-19T05:17:58.109Z,3.00
2022-12-19T05:20:25.009Z,2.90
2022-12-19T05:22:51.947Z,2.90
2022-12-19T05:25:18.861Z,2.90
2022-12-19T05:27:45.775Z,2.80
2022-12-19T05:30:13.052Z,2.80
2022-12-19T05:32:39.992Z,2.80
2022-12-19T05:35:07.303Z,2.70
2022-12-19T05:37:35.410Z,2.70
2022-12-19T05:40:02.550Z,2.70
2022-12-19T05:42:29.545Z,2.70
2022-12-19T05:44:56.439Z,2.70
2022-12-19T05:47:23.391Z,2.70
2022-12-19T05:49:50.335Z,2.70
2022-12-19T05:52:17.209Z,2.80
2022-12-19T05:54:44.982Z,2.90
2022-12-19T05:57:12.029Z,2.80
2022-12-19T05:59:38.907Z,2.70
2022-12-19T06:02:09.672Z,2.50
2022-12-19T06:04:37.039Z,2.50
2022-12-19T06:07:04.385Z,2.40
2022-12-19T06:09:31.369Z,2.30
2022-12-19T06:11:58.531Z,2.30
2022-12-19T06:14:25.473Z,2.20
2022-12-19T06:16:52.519Z,2.20
2022-12-19T06:19:20.699Z,2.10
2022-12-19T06:21:48.712Z,2.10
2022-12-19T06:24:15.999Z,2.00
2022-12-19T06:26:43.258Z,1.90
2022-12-19T06:29:10.493Z,1.80
2022-12-19T06:31:37.425Z,1.80
2022-12-19T06:34:04.351Z,1.80
2022-12-19T06:36:31.522Z,1.80
2022-12-19T06:38:58.943Z,1.80
2022-12-19T06:41:44.756Z,1.90
2022-12-19T06:44:13.801Z,1.90
2022-12-19T06:46:41.860Z,1.90
2022-12-19T06:49:10.084Z,1.90
2022-12-19T06:51:37.236Z,1.80
2022-12-19T06:54:04.360Z,1.90
2022-12-19T06:56:36.318Z,1.90
2022-12-19T06:59:03.610Z,2.00
2022-12-19T07:01:52.660Z,2.00
2022-12-19T07:04:26.651Z,2.10
2022-12-19T07:06:54.056Z,2.20
2022-12-19T07:09:21.630Z,2.30
2022-12-19T07:11:48.558Z,2.40
2022-12-19T07:14:15.480Z,2.40
2022-12-19T07:16:42.634Z,2.50
2022-12-19T07:19:10.012Z,2.60
2022-12-19T07:21:38.699Z,2.70
2022-12-19T07:24:07.503Z,2.70
2022-12-19T07:26:35.882Z,2.80
2022-12-19T07:29:03.363Z,2.90
2022-12-19T07:31:30.438Z,3.00
2022-12-19T07:33:58.063Z,3.10
2022-12-19T07:36:25.395Z,3.20
2022-12-19T07:38:52.320Z,3.30
2022-12-19T07:41:19.355Z,3.40
2022-12-19T07:43:47.287Z,3.40
2022-12-19T07:46:14.656Z,3.50
2022-12-19T07:48:42.053Z,3.50
2022-12-19T07:51:09.170Z,3.60
2022-12-19T07:53:36.204Z,3.70
2022-12-19T07:56:03.159Z,3.70
2022-12-19T07:58:30.889Z,3.70
2022-12-19T08:01:00.784Z,3.70
2022-12-19T08:03:32.074Z,3.70
2022-12-19T08:06:04.709Z,3.80
2022-12-19T08:08:32.459Z,3.90
2022-12-19T08:11:16.924Z,3.90
2022-12-19T08:13:47.007Z,4.10
2022-12-19T08:16:15.191Z,4.20
2022-12-19T08:18:42.237Z,4.30
2022-12-19T08:21:10.386Z,4.40
2022-12-19T08:23:38.847Z,4.60
2022-12-19T08:26:21.852Z,4.60
2022-12-19T08:28:48.793Z,4.70
2022-12-19T08:31:17.993Z,4.80
2022-12-19T08:33:45.672Z,5.00
2022-12-19T08:36:16.927Z,5.00
2022-12-19T08:38:43.889Z,5.00
2022-12-19T08:41:11.571Z,5.10
2022-12-19T08:43:39.213Z,5.10
2022-12-19T08:46:07.046Z,5.30
2022-12-19T08:48:35.375Z,5.40
2022-12-19T08:51:06.003Z,5.40
2022-12-19T08:53:35.689Z,5.50
2022-12-19T08:56:09.313Z,5.50
2022-12-19T08:58:36.259Z,5.40
2022-12-19T09:01:06.095Z,5.40
2022-12-19T09:03:49.632Z,5.30
2022-12-19T09:06:21.010Z,5.10
2022-12-19T09:08:48.042Z,5.00
2022-12-19T09:11:18.041Z,4.90
2022-12-19T09:13:45.522Z,4.90
2022-12-19T09:16:12.479Z,4.90
2022-12-19T09:18:45.171Z,4.90
2022-12-19T09:21:15.286Z,4.90
2022-12-19T09:23:43.220Z,4.80
2022-12-19T09:26:14.040Z,4.80
2022-12-19T09:28:41.997Z,4.80
2022-12-19T09:31:18.021Z,4.80
2022-12-19T09:33:45.410Z,4.80
2022-12-19T09:36:17.951Z,4.70
2022-12-19T09:38:46.013Z,4.80
2022-12-19T09:41:41.092Z,4.80
2022-12-19T09:44:29.102Z,4.80
2022-12-19T09:47:05.326Z,4.70
2022-12-19T09:49:41.918Z,4.70
2022-12-19T09:52:31.560Z,4.70
2022-12-19T09:55:18.833Z,4.70
2022-12-19T09:58:08.365Z,4.80
2022-12-19T10:00:49.369Z,4.90
2022-12-19T10:03:40.441Z,4.90
2022-12-19T10:07:15.825Z,4.90
2022-12-19T10:10:11.750Z,4.90
2022-12-19T10:12:46.000Z,4.90
2022-12-19T10:14:52.319Z,4.80
2022-12-19T10:17:26.283Z,4.90
2022-12-19T10:19:53.165Z,5.00
2022-12-19T10:22:20.064Z,5.10
2022-12-19T10:25:09.240Z,5.10
2022-12-19T10:28:02.109Z,5.30
2022-12-19T10:30:33.463Z,5.30
2022-12-19T10:33:05.184Z,5.30
2022-12-19T10:35:49.289Z,5.30
2022-12-19T10:38:21.296Z,5.40
2022-12-19T10:40:52.017Z,5.50
2022-12-19T10:44:13.510Z,5.60
2022-12-19T10:46:46.257Z,5.70
2022-12-19T10:49:18.022Z,5.90
2022-12-19T10:52:03.782Z,6.10
2022-12-19T10:54:43.564Z,6.20
2022-12-19T10:57:22.785Z,6.40
2022-12-19T11:00:15.511Z,6.50
2022-12-19T11:02:48.744Z,6.80
2022-12-19T11:05:27.998Z,7.00
2022-12-19T11:08:15.654Z,7.20
2022-12-19T11:11:55.028Z,7.30
2022-12-19T11:19:02.506Z,7.40
2022-12-19T11:22:40.074Z,7.50
2022-12-19T11:29:30.654Z,7.50
2022-12-19T11:29:31.604Z,7.60
2022-12-19T11:29:42.130Z,7.40
2022-12-19T11:29:43.951Z,7.40
2022-12-19T11:34:18.872Z,7.50
2022-12-19T11:36:52.521Z,7.60
2022-12-19T11:39:25.767Z,7.60
2022-12-19T11:42:21.195Z,7.40
2022-12-19T11:44:50.005Z,7.40
2022-12-19T11:47:32.567Z,7.60
2022-12-19T11:50:15.536Z,7.70
2022-12-19T11:53:11.371Z,8.00
2022-12-19T11:55:45.463Z,8.00
2022-12-19T11:58:13.507Z,7.90
2022-12-19T12:00:55.873Z,7.80
2022-12-19T12:03:29.240Z,7.80
2022-12-19T12:05:58.487Z,7.70
2022-12-19T12:10:07.729Z,7.60
2022-12-19T12:18:31.608Z,7.80
2022-12-19T12:28:20.914Z,8.00
2022-12-19T12:31:08.955Z,8.30
2022-12-19T12:31:32.346Z,8.80
2022-12-19T12:31:45.128Z,9.30
2022-12-19T12:31:50.788Z,9.80
2022-12-19T12:32:04.670Z,9.60
2022-12-19T12:35:50.039Z,10.00
2022-12-19T12:39:05.504Z,11.00
2022-12-19T12:42:03.766Z,11.60
2022-12-19T12:44:42.898Z,12.20
2022-12-19T12:47:17.996Z,13.00
2022-12-19T12:49:47.994Z,13.30
2022-12-19T12:52:20.256Z,13.20
2022-12-19T12:54:49.457Z,13.00
2022-12-19T12:57:27.674Z,12.70
2022-12-19T13:00:22.512Z,12.00
2022-12-19T13:03:16.793Z,11.30
2022-12-19T13:05:43.769Z,10.90
2022-12-19T13:08:40.062Z,10.60
2022-12-19T13:11:39.385Z,10.50
2022-12-19T13:14:35.489Z,10.30
2022-12-19T13:17:17.701Z,10.20
2022-12-19T13:19:57.477Z,10.00
2022-12-19T13:22:58.882Z,10.00
2022-12-19T13:25:34.636Z,9.80
2022-12-19T13:28:01.574Z,9.60
2022-12-19T13:30:30.380Z,9.50
2022-12-19T13:33:00.005Z,9.50
2022-12-19T13:38:40.496Z,9.50
2022-12-19T13:39:54.031Z,9.60
2022-12-19T13:41:47.975Z,9.40
2022-12-19T13:44:20.240Z,9.00
2022-12-19T13:46:47.371Z,8.50
2022-12-19T13:49:30.516Z,8.20
2022-12-19T13:52:02.561Z,8.00
2022-12-19T13:54:50.810Z,7.90
2022-12-19T13:57:31.402Z,8.00
2022-12-19T14:00:02.090Z,8.00
2022-12-19T14:02:45.250Z,7.90
2022-12-19T14:05:34.176Z,7.70
2022-12-19T14:08:16.555Z,7.30
2022-12-19T14:11:44.113Z,7.10
2022-12-19T14:14:08.082Z,6.90
2022-12-19T14:16:44.870Z,6.70
2022-12-19T14:19:30.895Z,6.50
2022-12-19T14:22:20.778Z,6.40
2022-12-19T14:25:44.182Z,6.30
2022-12-19T14:28:18.320Z,6.30
2022-12-19T14:30:43.573Z,6.30
2022-12-19T14:33:45.853Z,6.40
2022-12-19T14:36:14.623Z,6.30
2022-12-19T14:39:25.134Z,6.20
2022-12-19T14:42:01.882Z,6.10
2022-12-19T14:52:34.220Z,6.00
2022-12-19T14:54:16.485Z,6.00
2022-12-19T14:54:24.008Z,6.00
2022-12-19T14:54:41.627Z,5.90
2022-12-19T14:59:02.781Z,5.70
2022-12-19T15:01:33.178Z,5.70
2022-12-19T15:04:51.395Z,5.60
2022-12-19T15:07:07.121Z,5.60
2022-12-19T15:11:09.161Z,5.60
2022-12-19T15:14:51.620Z,5.50
2022-12-19T15:16:23.804Z,5.50
2022-12-19T15:18:58.491Z,5.40
2022-12-19T15:21:26.940Z,5.40
2022-12-19T15:23:53.991Z,5.30
2022-12-19T15:26:32.646Z,5.30
2022-12-19T15:29:00.229Z,5.30
2022-12-19T15:31:30.198Z,5.20
2022-12-19T15:34:33.063Z,5.20
2022-12-19T15:36:44.495Z,5.10
2022-12-19T15:39:11.451Z,5.10
2022-12-19T15:41:38.385Z,5.10
2022-12-19T15:44:28.555Z,5.00
2022-12-19T15:46:56.059Z,5.00
2022-12-19T15:49:23.600Z,4.90
2022-12-19T15:51:51.171Z,4.80
2022-12-19T15:57:05.484Z,4.70
2022-12-19T15:59:37.197Z,4.70
2022-12-19T16:02:18.577Z,4.70
2022-12-19T16:04:47.724Z,4.60
2022-12-19T16:07:20.517Z,4.60
2022-12-19T16:09:48.489Z,4.50
2022-12-19T16:12:27.560Z,4.40
2022-12-19T16:14:59.655Z,4.40
2022-12-19T16:17:28.915Z,4.40
2022-12-19T16:19:55.933Z,4.40
2022-12-19T16:22:28.728Z,4.40
2022-12-19T16:24:56.111Z,4.40
2022-12-19T16:27:31.031Z,4.30
2022-12-19T16:30:16.599Z,4.30
2022-12-19T16:32:45.586Z,4.30
2022-12-19T16:35:20.329Z,4.30
2022-12-19T16:37:51.401Z,4.30
2022-12-19T16:40:25.738Z,4.30
2022-12-19T16:43:04.404Z,4.20
2022-12-19T16:45:33.267Z,4.20
2022-12-19T16:48:00.319Z,4.20
2022-12-19T16:50:30.902Z,4.20
2022-12-19T16:52:58.075Z,4.10
2022-12-19T16:55:25.997Z,4.10
2022-12-19T16:57:55.991Z,4.10
2022-12-19T17:00:23.689Z,4.10
2022-12-19T17:02:57.269Z,4.10
2022-12-19T17:05:31.615Z,4.00
2022-12-19T17:07:59.643Z,4.00
2022-12-19T17:10:32.222Z,4.00
2022-12-19T17:13:01.851Z,3.90
2022-12-19T17:15:30.283Z,3.90
2022-12-19T17:17:59.556Z,3.90
2022-12-19T17:20:30.945Z,3.90
2022-12-19T17:22:58.354Z,3.90
2022-12-19T17:25:27.461Z,3.90
2022-12-19T17:27:55.969Z,3.80
2022-12-19T17:30:23.300Z,3.80
2022-12-19T17:32:53.189Z,3.80
2022-12-19T17:35:27.865Z,3.80
2022-12-19T17:37:56.849Z,3.70
2022-12-19T17:40:26.724Z,3.70
2022-12-19T17:42:54.665Z,3.70
2022-12-19T17:45:23.155Z,3.70
2022-12-19T17:47:51.591Z,3.70
2022-12-19T17:50:24.476Z,3.70
2022-12-19T17:52:51.550Z,3.70
2022-12-19T17:55:23.403Z,3.70
2022-12-19T17:57:50.894Z,3.70
2022-12-19T18:00:22.763Z,3.70
2022-12-19T18:02:54.977Z,3.70
2022-12-19T18:05:38.287Z,3.70
2022-12-19T18:08:23.246Z,3.70
2022-12-19T18:10:52.060Z,3.70
2022-12-19T18:13:20.470Z,3.70
2022-12-19T18:15:47.641Z,3.70
2022-12-19T18:18:16.501Z,3.60
2022-12-19T18:20:44.406Z,3.60
2022-12-19T18:23:17.603Z,3.70
2022-12-19T18:25:45.482Z,3.70
2022-12-19T18:28:13.059Z,3.70
2022-12-19T18:30:40.756Z,3.70
2022-12-19T18:33:08.342Z,3.70
2022-12-19T18:35:41.042Z,3.70
2022-12-19T18:38:13.313Z,3.70
2022-12-19T18:40:40.230Z,3.70
2022-12-19T18:43:07.181Z,3.70
2022-12-19T18:45:37.723Z,3.70
2022-12-19T18:48:07.953Z,3.70
2022-12-19T18:50:35.090Z,3.70
2022-12-19T18:53:02.242Z,3.70
2022-12-19T18:55:31.442Z,3.70
2022-12-19T18:57:58.380Z,3.60
2022-12-19T19:00:27.164Z,3.60
2022-12-19T19:03:04.059Z,3.60
2022-12-19T19:05:33.031Z,3.60
2022-12-19T19:08:13.175Z,3.60
2022-12-19T19:10:40.131Z,3.60
2022-12-19T19:13:12.371Z,3.60
2022-12-19T19:16:00.306Z,3.60
2022-12-19T19:18:34.217Z,3.60
2022-12-19T19:21:02.080Z,3.60
2022-12-19T19:23:39.346Z,3.60
2022-12-19T19:26:06.679Z,3.60
2022-12-19T19:28:33.613Z,3.70
2022-12-19T19:31:01.871Z,3.70
2022-12-19T19:33:35.410Z,3.70
2022-12-19T19:36:12.142Z,3.70
2022-12-19T19:38:42.377Z,3.80
2022-12-19T19:41:09.306Z,3.80
2022-12-19T19:43:36.481Z,3.80
2022-12-19T19:46:03.499Z,3.90
2022-12-19T19:48:31.025Z,3.90
2022-12-19T19:50:58.426Z,3.90
2022-12-19T19:53:25.739Z,4.00
2022-12-19T19:56:04.000Z,4.10
2022-12-19T19:58:32.062Z,4.10
2022-12-19T20:00:59.155Z,4.20
2022-12-19T20:03:26.697Z,4.20
2022-12-19T20:06:01.576Z,4.20
2022-12-19T20:08:33.652Z,4.30
2022-12-19T20:11:05.876Z,4.30
2022-12-19T20:13:34.315Z,4.30
2022-12-19T20:16:04.113Z,4.40
2022-12-19T20:18:31.177Z,4.40
2022-12-19T20:20:58.233Z,4.40
2022-12-19T20:23:26.205Z,4.40
2022-12-19T20:25:53.229Z,4.50
2022-12-19T20:28:21.421Z,4.40
2022-12-19T20:30:48.442Z,4.50
2022-12-19T20:33:15.858Z,4.50
2022-12-19T20:35:43.100Z,4.50
2022-12-19T20:38:10.398Z,4.60
2022-12-19T20:40:37.443Z,4.60
2022-12-19T20:43:04.351Z,4.60
2022-12-19T20:45:31.253Z,4.60
2022-12-19T20:47:58.247Z,4.70
2022-12-19T20:50:25.469Z,4.60
2022-12-19T20:52:52.415Z,4.60
2022-12-19T20:55:19.639Z,4.70
2022-12-19T20:57:46.552Z,4.70
2022-12-19T21:00:15.133Z,4.60
2022-12-19T21:03:25.109Z,4.70
2022-12-19T21:05:29.039Z,4.70
2022-12-19T21:07:55.936Z,4.70
2022-12-19T21:10:22.860Z,4.70
2022-12-19T21:12:49.760Z,4.70
2022-12-19T21:15:16.797Z,4.80
2022-12-19T21:17:43.875Z,4.80
2022-12-19T21:20:11.415Z,4.80
2022-12-19T21:22:38.437Z,4.70
2022-12-19T21:25:05.596Z,4.80
2022-12-19T21:27:32.592Z,4.80
2022-12-19T21:30:00.365Z,4.80
2022-12-19T21:32:27.879Z,4.80
2022-12-19T21:34:54.872Z,4.80
2022-12-19T21:37:24.187Z,4.80
2022-12-19T21:39:51.186Z,4.80
2022-12-19T21:42:18.136Z,4.80
2022-12-19T21:44:45.268Z,4.80
2022-12-19T21:47:12.294Z,4.80
2022-12-19T21:49:39.259Z,4.80
2022-12-19T21:52:06.175Z,4.80
2022-12-19T21:54:33.093Z,4.80
2022-12-19T21:57:00.160Z,4.80
2022-12-19T21:59:27.244Z,4.80
2022-12-19T22:01:54.387Z,4.80
2022-12-19T22:04:23.761Z,4.80
2022-12-19T22:06:51.460Z,4.80
2022-12-19T22:09:21.291Z,4.80
2022-12-19T22:11:48.699Z,4.80
2022-12-19T22:14:17.068Z,4.80
2022-12-19T22:16:44.499Z,4.80
2022-12-19T22:19:15.008Z,4.70
2022-12-19T22:21:42.375Z,4.70
2022-12-19T22:24:12.338Z,4.80
2022-12-19T22:26:39.923Z,4.70
2022-12-19T22:29:09.518Z,4.70
2022-12-19T22:31:38.030Z,4.70
2022-12-19T22:34:08.417Z,4.70
2022-12-19T22:36:36.702Z,4.70
2022-12-19T22:39:06.902Z,4.70
2022-12-19T22:41:35.368Z,4.70
2022-12-19T22:44:02.926Z,4.70
2022-12-19T22:46:32.904Z,4.70
2022-12-19T22:49:02.425Z,4.70
2022-12-19T22:51:30.606Z,4.80
2022-12-19T22:53:58.125Z,4.80
2022-12-19T22:56:28.056Z,4.80
2022-12-19T22:58:58.736Z,4.80
2022-12-19T23:01:29.030Z,4.80
2022-12-19T23:03:58.091Z,4.80
2022-12-19T23:06:27.029Z,4.80
2022-12-19T23:08:54.412Z,4.80
2022-12-19T23:11:24.437Z,4.80
2022-12-19T23:13:51.580Z,4.80
2022-12-19T23:16:18.771Z,4.80
2022-12-19T23:18:45.874Z,4.80
2022-12-19T23:21:18.848Z,4.80
2022-12-19T23:23:47.304Z,4.80
2022-12-19T23:26:24.091Z,4.80
2022-12-19T23:28:57.439Z,4.80
2022-12-19T23:31:25.009Z,4.80
2022-12-19T23:33:52.002Z,4.80
2022-12-19T23:36:38.188Z,4.80
2022-12-19T23:39:06.609Z,4.80
2022-12-19T23:41:33.552Z,4.80
2022-12-19T23:44:00.653Z,4.80
2022-12-19T23:46:28.498Z,4.80
2022-12-19T23:48:55.927Z,4.90
2022-12-19T23:51:25.492Z,4.90
2022-12-19T23:53:54.311Z,4.90
2022-12-19T23:56:31.895Z,4.90
2022-12-19T23:58:59.300Z,5.00
